sensor_id;sensor_type;location;lat;lon;timestamp;P1;durP1;ratioP1;P2;durP2;ratioP2
23470;SDS011;11908;50.806;4.424;2023-06-05T00:01:37;5.78;;;3.10;;
23470;SDS011;11908;50.806;4.424;2023-06-05T00:04:03;9.48;;;3.30;;
23470;SDS011;11908;50.806;4.424;2023-06-05T00:06:29;9.68;;;3.88;;
23470;SDS011;11908;50.806;4.424;2023-06-05T00:08:55;8.95;;;2.97;;
23470;SDS011;11908;50.806;4.424;2023-06-05T00:11:21;9.10;;;3.20;;
23470;SDS011;11908;50.806;4.424;2023-06-05T00:13:47;5.03;;;3.35;;
23470;SDS011;11908;50.806;4.424;2023-06-05T00:16:14;8.95;;;3.03;;
23470;SDS011;11908;50.806;4.424;2023-06-05T00:18:40;5.80;;;3.30;;
23470;SDS011;11908;50.806;4.424;2023-06-05T00:21:08;7.85;;;3.90;;
23470;SDS011;11908;50.806;4.424;2023-06-05T00:23:33;8.85;;;3.50;;
23470;SDS011;11908;50.806;4.424;2023-06-05T00:25:59;6.10;;;3.58;;
23470;SDS011;11908;50.806;4.424;2023-06-05T00:28:25;10.00;;;3.55;;
23470;SDS011;11908;50.806;4.424;2023-06-05T00:30:51;8.00;;;3.47;;
23470;SDS011;11908;50.806;4.424;2023-06-05T00:33:16;6.07;;;3.08;;
23470;SDS011;11908;50.806;4.424;2023-06-05T00:35:42;7.30;;;3.90;;
23470;SDS011;11908;50.806;4.424;2023-06-05T00:38:08;8.90;;;3.60;;
23470;SDS011;11908;50.806;4.424;2023-06-05T00:40:33;5.70;;;3.50;;
23470;SDS011;11908;50.806;4.424;2023-06-05T00:42:59;5.97;;;3.78;;
23470;SDS011;11908;50.806;4.424;2023-06-05T00:45:25;8.77;;;3.47;;
23470;SDS011;11908;50.806;4.424;2023-06-05T00:47:51;5.63;;;3.25;;
23470;SDS011;11908;50.806;4.424;2023-06-05T00:50:17;7.85;;;4.30;;
23470;SDS011;11908;50.806;4.424;2023-06-05T00:52:46;5.68;;;3.22;;
23470;SDS011;11908;50.806;4.424;2023-06-05T00:55:13;6.03;;;3.53;;
23470;SDS011;11908;50.806;4.424;2023-06-05T00:57:39;4.82;;;3.47;;
23470;SDS011;11908;50.806;4.424;2023-06-05T01:03:27;5.60;;;3.63;;
23470;SDS011;11908;50.806;4.424;2023-06-05T01:05:54;7.10;;;3.70;;
23470;SDS011;11908;50.806;4.424;2023-06-05T01:08:28;8.10;;;4.07;;
23470;SDS011;11908;50.806;4.424;2023-06-05T01:11:03;8.00;;;3.95;;
23470;SDS011;11908;50.806;4.424;2023-06-05T01:13:34;7.32;;;3.47;;
23470;SDS011;11908;50.806;4.424;2023-06-05T01:16:03;7.70;;;3.65;;
23470;SDS011;11908;50.806;4.424;2023-06-05T01:18:30;8.77;;;3.45;;
23470;SDS011;11908;50.806;4.424;2023-06-05T01:20:59;8.45;;;3.88;;
23470;SDS011;11908;50.806;4.424;2023-06-05T01:23:26;6.50;;;3.50;;
23470;SDS011;11908;50.806;4.424;2023-06-05T01:25:56;9.30;;;4.53;;
23470;SDS011;11908;50.806;4.424;2023-06-05T01:28:28;10.03;;;3.93;;
23470;SDS011;11908;50.806;4.424;2023-06-05T01:33:31;8.85;;;3.90;;
23470;SDS011;11908;50.806;4.424;2023-06-05T01:36:06;8.63;;;4.13;;
23470;SDS011;11908;50.806;4.424;2023-06-05T01:38:35;6.85;;;3.70;;
23470;SDS011;11908;50.806;4.424;2023-06-05T01:41:02;11.43;;;3.72;;
23470;SDS011;11908;50.806;4.424;2023-06-05T01:43:29;11.43;;;4.38;;
23470;SDS011;11908;50.806;4.424;2023-06-05T01:45:55;5.95;;;4.10;;
23470;SDS011;11908;50.806;4.424;2023-06-05T01:48:24;9.02;;;4.20;;
23470;SDS011;11908;50.806;4.424;2023-06-05T01:50:59;10.27;;;3.90;;
23470;SDS011;11908;50.806;4.424;2023-06-05T01:53:25;7.95;;;4.65;;
23470;SDS011;11908;50.806;4.424;2023-06-05T01:55:52;6.32;;;4.22;;
23470;SDS011;11908;50.806;4.424;2023-06-05T01:58:22;7.05;;;4.53;;
23470;SDS011;11908;50.806;4.424;2023-06-05T02:00:51;10.63;;;4.68;;
23470;SDS011;11908;50.806;4.424;2023-06-05T02:03:23;8.68;;;4.97;;
23470;SDS011;11908;50.806;4.424;2023-06-05T02:05:49;8.73;;;4.18;;
23470;SDS011;11908;50.806;4.424;2023-06-05T02:08:19;10.13;;;4.45;;
23470;SDS011;11908;50.806;4.424;2023-06-05T02:10:50;8.20;;;4.70;;
23470;SDS011;11908;50.806;4.424;2023-06-05T02:13:17;11.00;;;5.35;;
23470;SDS011;11908;50.806;4.424;2023-06-05T02:15:48;8.27;;;4.75;;
23470;SDS011;11908;50.806;4.424;2023-06-05T02:18:15;8.73;;;4.40;;
23470;SDS011;11908;50.806;4.424;2023-06-05T02:20:42;7.05;;;4.07;;
23470;SDS011;11908;50.806;4.424;2023-06-05T02:23:07;6.65;;;4.93;;
23470;SDS011;11908;50.806;4.424;2023-06-05T02:25:33;7.55;;;4.13;;
23470;SDS011;11908;50.806;4.424;2023-06-05T02:27:59;11.90;;;4.80;;
23470;SDS011;11908;50.806;4.424;2023-06-05T02:30:24;8.45;;;4.78;;
23470;SDS011;11908;50.806;4.424;2023-06-05T02:32:50;11.18;;;4.43;;
23470;SDS011;11908;50.806;4.424;2023-06-05T02:35:21;10.10;;;4.63;;
23470;SDS011;11908;50.806;4.424;2023-06-05T02:37:47;7.82;;;4.38;;
23470;SDS011;11908;50.806;4.424;2023-06-05T02:40:13;8.30;;;5.13;;
23470;SDS011;11908;50.806;4.424;2023-06-05T02:42:39;11.45;;;4.82;;
23470;SDS011;11908;50.806;4.424;2023-06-05T02:45:06;17.50;;;5.95;;
23470;SDS011;11908;50.806;4.424;2023-06-05T02:47:33;10.75;;;5.05;;
23470;SDS011;11908;50.806;4.424;2023-06-05T02:49:59;13.57;;;4.70;;
23470;SDS011;11908;50.806;4.424;2023-06-05T02:52:25;8.88;;;4.55;;
23470;SDS011;11908;50.806;4.424;2023-06-05T02:54:53;12.48;;;5.22;;
23470;SDS011;11908;50.806;4.424;2023-06-05T02:57:18;9.13;;;4.60;;
23470;SDS011;11908;50.806;4.424;2023-06-05T02:59:44;10.35;;;4.60;;
23470;SDS011;11908;50.806;4.424;2023-06-05T03:02:10;9.10;;;4.88;;
23470;SDS011;11908;50.806;4.424;2023-06-05T03:04:36;12.82;;;5.28;;
23470;SDS011;11908;50.806;4.424;2023-06-05T03:07:05;10.75;;;5.43;;
23470;SDS011;11908;50.806;4.424;2023-06-05T03:09:33;8.02;;;4.53;;
23470;SDS011;11908;50.806;4.424;2023-06-05T03:11:59;7.90;;;5.00;;
23470;SDS011;11908;50.806;4.424;2023-06-05T03:14:25;10.55;;;4.72;;
23470;SDS011;11908;50.806;4.424;2023-06-05T03:16:51;9.27;;;5.18;;
23470;SDS011;11908;50.806;4.424;2023-06-05T03:19:18;10.30;;;5.60;;
23470;SDS011;11908;50.806;4.424;2023-06-05T03:21:44;7.40;;;4.85;;
23470;SDS011;11908;50.806;4.424;2023-06-05T03:24:10;7.80;;;4.90;;
23470;SDS011;11908;50.806;4.424;2023-06-05T03:26:41;9.00;;;5.10;;
23470;SDS011;11908;50.806;4.424;2023-06-05T03:29:07;8.98;;;5.75;;
23470;SDS011;11908;50.806;4.424;2023-06-05T03:31:33;7.78;;;5.68;;
23470;SDS011;11908;50.806;4.424;2023-06-05T03:34:00;9.75;;;5.60;;
23470;SDS011;11908;50.806;4.424;2023-06-05T03:36:27;8.23;;;5.05;;
23470;SDS011;11908;50.806;4.424;2023-06-05T03:38:54;11.75;;;5.72;;
23470;SDS011;11908;50.806;4.424;2023-06-05T03:41:20;9.80;;;5.18;;
23470;SDS011;11908;50.806;4.424;2023-06-05T03:43:46;6.93;;;4.97;;
23470;SDS011;11908;50.806;4.424;2023-06-05T03:46:14;7.80;;;5.30;;
23470;SDS011;11908;50.806;4.424;2023-06-05T03:48:43;9.02;;;5.00;;
23470;SDS011;11908;50.806;4.424;2023-06-05T03:51:14;9.13;;;5.43;;
23470;SDS011;11908;50.806;4.424;2023-06-05T03:53:43;9.07;;;5.30;;
23470;SDS011;11908;50.806;4.424;2023-06-05T03:56:09;14.52;;;5.80;;
23470;SDS011;11908;50.806;4.424;2023-06-05T03:58:36;12.52;;;6.00;;
23470;SDS011;11908;50.806;4.424;2023-06-05T04:01:03;8.75;;;5.18;;
23470;SDS011;11908;50.806;4.424;2023-06-05T04:03:29;7.15;;;5.40;;
23470;SDS011;11908;50.806;4.424;2023-06-05T04:05:55;7.35;;;5.35;;
23470;SDS011;11908;50.806;4.424;2023-06-05T04:08:21;8.57;;;5.30;;
23470;SDS011;11908;50.806;4.424;2023-06-05T04:10:46;10.02;;;5.35;;
23470;SDS011;11908;50.806;4.424;2023-06-05T04:13:12;15.00;;;5.22;;
23470;SDS011;11908;50.806;4.424;2023-06-05T04:15:38;10.77;;;5.65;;
23470;SDS011;11908;50.806;4.424;2023-06-05T04:18:03;9.98;;;5.40;;
23470;SDS011;11908;50.806;4.424;2023-06-05T04:20:29;11.15;;;5.72;;
23470;SDS011;11908;50.806;4.424;2023-06-05T04:22:55;9.75;;;5.57;;
23470;SDS011;11908;50.806;4.424;2023-06-05T04:25:20;9.15;;;5.15;;
23470;SDS011;11908;50.806;4.424;2023-06-05T04:27:47;8.15;;;5.45;;
23470;SDS011;11908;50.806;4.424;2023-06-05T04:30:15;11.32;;;4.80;;
23470;SDS011;11908;50.806;4.424;2023-06-05T04:32:40;8.90;;;4.93;;
23470;SDS011;11908;50.806;4.424;2023-06-05T04:35:07;6.63;;;4.50;;
23470;SDS011;11908;50.806;4.424;2023-06-05T04:37:36;7.55;;;4.43;;
23470;SDS011;11908;50.806;4.424;2023-06-05T04:40:02;5.43;;;3.78;;
23470;SDS011;11908;50.806;4.424;2023-06-05T04:42:31;9.18;;;4.30;;
23470;SDS011;11908;50.806;4.424;2023-06-05T04:44:58;8.90;;;4.72;;
23470;SDS011;11908;50.806;4.424;2023-06-05T04:47:26;7.13;;;4.03;;
23470;SDS011;11908;50.806;4.424;2023-06-05T04:49:58;12.07;;;4.25;;
23470;SDS011;11908;50.806;4.424;2023-06-05T04:52:25;6.70;;;4.07;;
23470;SDS011;11908;50.806;4.424;2023-06-05T04:54:54;5.88;;;3.70;;
23470;SDS011;11908;50.806;4.424;2023-06-05T04:57:20;8.80;;;4.03;;
23470;SDS011;11908;50.806;4.424;2023-06-05T04:59:45;9.45;;;4.40;;
23470;SDS011;11908;50.806;4.424;2023-06-05T05:02:11;5.90;;;4.03;;
23470;SDS011;11908;50.806;4.424;2023-06-05T05:04:37;6.32;;;4.50;;
23470;SDS011;11908;50.806;4.424;2023-06-05T05:07:03;7.25;;;4.35;;
23470;SDS011;11908;50.806;4.424;2023-06-05T05:09:30;7.63;;;4.63;;
23470;SDS011;11908;50.806;4.424;2023-06-05T05:11:57;8.05;;;4.53;;
23470;SDS011;11908;50.806;4.424;2023-06-05T05:14:24;7.82;;;4.60;;
23470;SDS011;11908;50.806;4.424;2023-06-05T05:16:53;8.20;;;4.38;;
23470;SDS011;11908;50.806;4.424;2023-06-05T05:19:20;6.85;;;4.85;;
23470;SDS011;11908;50.806;4.424;2023-06-05T05:21:46;12.65;;;4.72;;
23470;SDS011;11908;50.806;4.424;2023-06-05T05:24:13;11.93;;;4.57;;
23470;SDS011;11908;50.806;4.424;2023-06-05T05:26:39;9.25;;;4.50;;
23470;SDS011;11908;50.806;4.424;2023-06-05T05:29:05;6.15;;;3.85;;
23470;SDS011;11908;50.806;4.424;2023-06-05T05:31:31;9.82;;;4.65;;
23470;SDS011;11908;50.806;4.424;2023-06-05T05:33:57;10.55;;;4.68;;
23470;SDS011;11908;50.806;4.424;2023-06-05T05:36:23;6.80;;;4.63;;
23470;SDS011;11908;50.806;4.424;2023-06-05T05:38:50;8.77;;;5.03;;
23470;SDS011;11908;50.806;4.424;2023-06-05T05:41:16;8.45;;;5.35;;
23470;SDS011;11908;50.806;4.424;2023-06-05T05:43:41;6.18;;;4.07;;
23470;SDS011;11908;50.806;4.424;2023-06-05T05:46:07;9.60;;;4.78;;
23470;SDS011;11908;50.806;4.424;2023-06-05T05:48:36;9.05;;;4.78;;
23470;SDS011;11908;50.806;4.424;2023-06-05T05:51:02;11.07;;;5.15;;
23470;SDS011;11908;50.806;4.424;2023-06-05T05:53:29;8.82;;;4.60;;
23470;SDS011;11908;50.806;4.424;2023-06-05T05:55:55;9.05;;;5.22;;
23470;SDS011;11908;50.806;4.424;2023-06-05T05:58:20;6.50;;;4.55;;
23470;SDS011;11908;50.806;4.424;2023-06-05T06:00:46;7.88;;;4.78;;
23470;SDS011;11908;50.806;4.424;2023-06-05T06:03:12;9.90;;;4.55;;
23470;SDS011;11908;50.806;4.424;2023-06-05T06:05:39;8.35;;;4.28;;
23470;SDS011;11908;50.806;4.424;2023-06-05T06:08:05;9.95;;;4.90;;
23470;SDS011;11908;50.806;4.424;2023-06-05T06:10:31;11.02;;;4.07;;
23470;SDS011;11908;50.806;4.424;2023-06-05T06:12:58;8.77;;;4.45;;
23470;SDS011;11908;50.806;4.424;2023-06-05T06:15:24;7.00;;;4.90;;
23470;SDS011;11908;50.806;4.424;2023-06-05T06:17:49;11.93;;;5.20;;
23470;SDS011;11908;50.806;4.424;2023-06-05T06:20:15;12.23;;;5.22;;
23470;SDS011;11908;50.806;4.424;2023-06-05T06:22:41;6.90;;;5.07;;
23470;SDS011;11908;50.806;4.424;2023-06-05T06:25:08;7.13;;;4.53;;
23470;SDS011;11908;50.806;4.424;2023-06-05T06:27:35;9.20;;;5.13;;
23470;SDS011;11908;50.806;4.424;2023-06-05T06:30:02;8.02;;;4.90;;
23470;SDS011;11908;50.806;4.424;2023-06-05T06:32:28;9.40;;;5.85;;
23470;SDS011;11908;50.806;4.424;2023-06-05T06:34:55;9.73;;;4.85;;
23470;SDS011;11908;50.806;4.424;2023-06-05T06:37:20;11.02;;;5.78;;
23470;SDS011;11908;50.806;4.424;2023-06-05T06:39:47;12.48;;;5.03;;
23470;SDS011;11908;50.806;4.424;2023-06-05T06:42:14;14.35;;;5.40;;
23470;SDS011;11908;50.806;4.424;2023-06-05T06:44:40;8.80;;;5.60;;
23470;SDS011;11908;50.806;4.424;2023-06-05T06:47:06;12.80;;;5.05;;
23470;SDS011;11908;50.806;4.424;2023-06-05T06:49:33;8.63;;;5.15;;
23470;SDS011;11908;50.806;4.424;2023-06-05T06:52:03;10.07;;;4.82;;
23470;SDS011;11908;50.806;4.424;2023-06-05T06:54:29;8.38;;;4.80;;
23470;SDS011;11908;50.806;4.424;2023-06-05T06:56:55;9.50;;;5.47;;
23470;SDS011;11908;50.806;4.424;2023-06-05T06:59:21;11.20;;;5.20;;
23470;SDS011;11908;50.806;4.424;2023-06-05T07:01:48;7.80;;;5.13;;
23470;SDS011;11908;50.806;4.424;2023-06-05T07:04:33;10.43;;;5.50;;
23470;SDS011;11908;50.806;4.424;2023-06-05T07:06:59;10.18;;;5.10;;
23470;SDS011;11908;50.806;4.424;2023-06-05T07:09:25;7.05;;;5.07;;
23470;SDS011;11908;50.806;4.424;2023-06-05T07:11:51;10.35;;;5.20;;
23470;SDS011;11908;50.806;4.424;2023-06-05T07:14:18;8.05;;;5.18;;
23470;SDS011;11908;50.806;4.424;2023-06-05T07:16:44;9.45;;;5.57;;
23470;SDS011;11908;50.806;4.424;2023-06-05T07:19:09;11.10;;;5.38;;
23470;SDS011;11908;50.806;4.424;2023-06-05T07:21:35;13.55;;;6.03;;
23470;SDS011;11908;50.806;4.424;2023-06-05T07:24:03;8.63;;;5.25;;
23470;SDS011;11908;50.806;4.424;2023-06-05T07:26:29;10.82;;;5.20;;
23470;SDS011;11908;50.806;4.424;2023-06-05T07:28:55;11.45;;;5.88;;
23470;SDS011;11908;50.806;4.424;2023-06-05T07:31:21;8.05;;;5.55;;
23470;SDS011;11908;50.806;4.424;2023-06-05T07:33:46;8.45;;;5.35;;
23470;SDS011;11908;50.806;4.424;2023-06-05T07:36:13;9.70;;;6.25;;
23470;SDS011;11908;50.806;4.424;2023-06-05T07:38:39;7.32;;;5.53;;
23470;SDS011;11908;50.806;4.424;2023-06-05T07:41:05;9.90;;;6.00;;
23470;SDS011;11908;50.806;4.424;2023-06-05T07:43:33;9.15;;;5.43;;
23470;SDS011;11908;50.806;4.424;2023-06-05T07:45:59;10.50;;;5.38;;
23470;SDS011;11908;50.806;4.424;2023-06-05T07:48:25;10.98;;;5.57;;
23470;SDS011;11908;50.806;4.424;2023-06-05T07:50:51;11.05;;;5.60;;
23470;SDS011;11908;50.806;4.424;2023-06-05T07:53:16;8.68;;;5.53;;
23470;SDS011;11908;50.806;4.424;2023-06-05T07:55:42;11.48;;;5.93;;
23470;SDS011;11908;50.806;4.424;2023-06-05T07:58:08;11.25;;;5.57;;
23470;SDS011;11908;50.806;4.424;2023-06-05T08:00:34;8.95;;;5.70;;
23470;SDS011;11908;50.806;4.424;2023-06-05T08:02:59;6.68;;;5.30;;
23470;SDS011;11908;50.806;4.424;2023-06-05T08:05:25;11.90;;;5.40;;
23470;SDS011;11908;50.806;4.424;2023-06-05T08:07:51;12.18;;;6.03;;
23470;SDS011;11908;50.806;4.424;2023-06-05T08:10:16;8.90;;;6.05;;
23470;SDS011;11908;50.806;4.424;2023-06-05T08:12:42;8.88;;;5.60;;
23470;SDS011;11908;50.806;4.424;2023-06-05T08:15:08;8.45;;;5.85;;
23470;SDS011;11908;50.806;4.424;2023-06-05T08:17:34;13.85;;;5.75;;
23470;SDS011;11908;50.806;4.424;2023-06-05T08:19:59;10.85;;;6.38;;
23470;SDS011;11908;50.806;4.424;2023-06-05T08:22:25;8.50;;;5.80;;
23470;SDS011;11908;50.806;4.424;2023-06-05T08:24:53;9.07;;;5.65;;
23470;SDS011;11908;50.806;4.424;2023-06-05T08:27:21;13.43;;;6.00;;
23470;SDS011;11908;50.806;4.424;2023-06-05T08:29:46;11.73;;;6.72;;
23470;SDS011;11908;50.806;4.424;2023-06-05T08:32:12;10.25;;;5.60;;
23470;SDS011;11908;50.806;4.424;2023-06-05T08:34:38;11.15;;;5.43;;
23470;SDS011;11908;50.806;4.424;2023-06-05T08:37:03;11.35;;;5.40;;
23470;SDS011;11908;50.806;4.424;2023-06-05T08:39:29;6.70;;;5.45;;
23470;SDS011;11908;50.806;4.424;2023-06-05T08:42:00;10.05;;;6.53;;
23470;SDS011;11908;50.806;4.424;2023-06-05T08:44:28;8.93;;;6.07;;
23470;SDS011;11908;50.806;4.424;2023-06-05T08:46:57;12.18;;;6.40;;
23470;SDS011;11908;50.806;4.424;2023-06-05T08:49:25;8.82;;;5.95;;
23470;SDS011;11908;50.806;4.424;2023-06-05T08:52:02;10.32;;;6.90;;
23470;SDS011;11908;50.806;4.424;2023-06-05T08:54:31;7.25;;;5.93;;
23470;SDS011;11908;50.806;4.424;2023-06-05T08:57:03;12.13;;;6.20;;
23470;SDS011;11908;50.806;4.424;2023-06-05T08:59:30;13.10;;;6.95;;
23470;SDS011;11908;50.806;4.424;2023-06-05T09:01:56;17.83;;;6.78;;
23470;SDS011;11908;50.806;4.424;2023-06-05T09:04:23;12.05;;;6.65;;
23470;SDS011;11908;50.806;4.424;2023-06-05T09:06:49;7.00;;;6.07;;
23470;SDS011;11908;50.806;4.424;2023-06-05T09:09:18;11.07;;;6.85;;
23470;SDS011;11908;50.806;4.424;2023-06-05T09:11:44;18.15;;;6.53;;
23470;SDS011;11908;50.806;4.424;2023-06-05T09:14:10;15.68;;;6.45;;
23470;SDS011;11908;50.806;4.424;2023-06-05T09:16:37;11.05;;;6.13;;
23470;SDS011;11908;50.806;4.424;2023-06-05T09:19:08;14.07;;;6.70;;
23470;SDS011;11908;50.806;4.424;2023-06-05T09:21:36;12.52;;;6.20;;
23470;SDS011;11908;50.806;4.424;2023-06-05T09:24:21;11.82;;;6.35;;
23470;SDS011;11908;50.806;4.424;2023-06-05T09:26:50;8.95;;;6.75;;
23470;SDS011;11908;50.806;4.424;2023-06-05T09:29:27;10.18;;;6.18;;
23470;SDS011;11908;50.806;4.424;2023-06-05T09:31:54;9.35;;;6.40;;
23470;SDS011;11908;50.806;4.424;2023-06-05T09:34:22;8.35;;;6.32;;
23470;SDS011;11908;50.806;4.424;2023-06-05T09:36:48;11.93;;;6.03;;
23470;SDS011;11908;50.806;4.424;2023-06-05T09:39:14;10.30;;;6.13;;
23470;SDS011;11908;50.806;4.424;2023-06-05T09:41:41;11.07;;;6.55;;
23470;SDS011;11908;50.806;4.424;2023-06-05T09:44:09;9.48;;;6.35;;
23470;SDS011;11908;50.806;4.424;2023-06-05T09:46:35;7.65;;;5.90;;
23470;SDS011;11908;50.806;4.424;2023-06-05T09:49:21;11.00;;;6.40;;
23470;SDS011;11908;50.806;4.424;2023-06-05T09:51:49;8.63;;;6.45;;
23470;SDS011;11908;50.806;4.424;2023-06-05T09:54:15;9.63;;;6.22;;
23470;SDS011;11908;50.806;4.424;2023-06-05T09:56:48;8.35;;;6.93;;
23470;SDS011;11908;50.806;4.424;2023-06-05T09:59:18;10.63;;;6.80;;
23470;SDS011;11908;50.806;4.424;2023-06-05T10:01:46;9.38;;;5.88;;
23470;SDS011;11908;50.806;4.424;2023-06-05T10:04:15;8.25;;;7.00;;
23470;SDS011;11908;50.806;4.424;2023-06-05T10:06:43;13.98;;;6.43;;
23470;SDS011;11908;50.806;4.424;2023-06-05T10:09:09;11.48;;;5.97;;
23470;SDS011;11908;50.806;4.424;2023-06-05T10:11:36;9.20;;;6.25;;
23470;SDS011;11908;50.806;4.424;2023-06-05T10:14:04;10.50;;;7.28;;
23470;SDS011;11908;50.806;4.424;2023-06-05T10:16:30;7.75;;;5.65;;
23470;SDS011;11908;50.806;4.424;2023-06-05T10:18:56;8.23;;;6.50;;
23470;SDS011;11908;50.806;4.424;2023-06-05T10:21:22;9.82;;;5.90;;
23470;SDS011;11908;50.806;4.424;2023-06-05T10:23:50;10.68;;;5.55;;
23470;SDS011;11908;50.806;4.424;2023-06-05T10:38:44;8.15;;;5.15;;
23470;SDS011;11908;50.806;4.424;2023-06-05T10:41:10;7.80;;;4.65;;
23470;SDS011;11908;50.806;4.424;2023-06-05T10:43:46;8.40;;;5.00;;
23470;SDS011;11908;50.806;4.424;2023-06-05T10:51:36;20.08;;;5.78;;
23470;SDS011;11908;50.806;4.424;2023-06-05T10:54:04;8.10;;;4.85;;
23470;SDS011;11908;50.806;4.424;2023-06-05T10:59:16;8.05;;;5.35;;
23470;SDS011;11908;50.806;4.424;2023-06-05T11:01:45;12.55;;;4.53;;
23470;SDS011;11908;50.806;4.424;2023-06-05T11:07:18;7.30;;;4.63;;
23470;SDS011;11908;50.806;4.424;2023-06-05T11:15:06;10.65;;;5.25;;
23470;SDS011;11908;50.806;4.424;2023-06-05T11:17:33;8.60;;;4.30;;
23470;SDS011;11908;50.806;4.424;2023-06-05T11:20:00;8.43;;;4.90;;
23470;SDS011;11908;50.806;4.424;2023-06-05T11:22:31;7.55;;;5.18;;
23470;SDS011;11908;50.806;4.424;2023-06-05T11:27:42;10.02;;;4.63;;
23470;SDS011;11908;50.806;4.424;2023-06-05T11:30:14;11.40;;;4.70;;
23470;SDS011;11908;50.806;4.424;2023-06-05T11:32:42;7.72;;;4.30;;
23470;SDS011;11908;50.806;4.424;2023-06-05T11:35:08;6.80;;;3.88;;
23470;SDS011;11908;50.806;4.424;2023-06-05T11:37:34;6.05;;;4.03;;
23470;SDS011;11908;50.806;4.424;2023-06-05T11:40:02;8.30;;;3.90;;
23470;SDS011;11908;50.806;4.424;2023-06-05T11:42:38;10.57;;;3.70;;
23470;SDS011;11908;50.806;4.424;2023-06-05T11:45:10;6.68;;;3.92;;
23470;SDS011;11908;50.806;4.424;2023-06-05T11:47:37;6.32;;;3.40;;
23470;SDS011;11908;50.806;4.424;2023-06-05T11:50:07;8.23;;;4.13;;
23470;SDS011;11908;50.806;4.424;2023-06-05T11:52:33;8.25;;;3.70;;
23470;SDS011;11908;50.806;4.424;2023-06-05T11:55:18;7.57;;;3.88;;
23470;SDS011;11908;50.806;4.424;2023-06-05T11:57:47;11.05;;;4.82;;
23470;SDS011;11908;50.806;4.424;2023-06-05T12:00:14;7.63;;;4.50;;
23470;SDS011;11908;50.806;4.424;2023-06-05T12:02:47;5.57;;;3.35;;
23470;SDS011;11908;50.806;4.424;2023-06-05T12:05:14;6.28;;;2.80;;
23470;SDS011;11908;50.806;4.424;2023-06-05T12:07:40;7.03;;;2.95;;
23470;SDS011;11908;50.806;4.424;2023-06-05T12:10:07;6.75;;;3.30;;
23470;SDS011;11908;50.806;4.424;2023-06-05T12:12:34;5.97;;;3.20;;
23470;SDS011;11908;50.806;4.424;2023-06-05T12:15:15;5.63;;;3.58;;
23470;SDS011;11908;50.806;4.424;2023-06-05T12:17:48;8.15;;;3.25;;
23470;SDS011;11908;50.806;4.424;2023-06-05T12:20:18;4.57;;;3.00;;
23470;SDS011;11908;50.806;4.424;2023-06-05T12:22:44;4.95;;;2.97;;
23470;SDS011;11908;50.806;4.424;2023-06-05T12:25:16;6.22;;;3.20;;
23470;SDS011;11908;50.806;4.424;2023-06-05T12:27:43;8.33;;;3.23;;
23470;SDS011;11908;50.806;4.424;2023-06-05T12:30:10;4.70;;;2.83;;
23470;SDS011;11908;50.806;4.424;2023-06-05T12:32:36;4.72;;;2.92;;
23470;SDS011;11908;50.806;4.424;2023-06-05T12:35:04;7.28;;;3.30;;
23470;SDS011;11908;50.806;4.424;2023-06-05T12:37:34;6.20;;;2.88;;
23470;SDS011;11908;50.806;4.424;2023-06-05T12:40:04;6.40;;;3.00;;
23470;SDS011;11908;50.806;4.424;2023-06-05T12:42:34;9.50;;;3.03;;
23470;SDS011;11908;50.806;4.424;2023-06-05T12:45:03;4.75;;;3.25;;
23470;SDS011;11908;50.806;4.424;2023-06-05T12:47:30;4.75;;;3.22;;
23470;SDS011;11908;50.806;4.424;2023-06-05T12:49:55;9.77;;;2.90;;
23470;SDS011;11908;50.806;4.424;2023-06-05T12:52:23;9.55;;;2.60;;
23470;SDS011;11908;50.806;4.424;2023-06-05T12:54:51;6.07;;;2.47;;
23470;SDS011;11908;50.806;4.424;2023-06-05T12:57:20;7.25;;;2.95;;
23470;SDS011;11908;50.806;4.424;2023-06-05T12:59:51;3.65;;;2.50;;
23470;SDS011;11908;50.806;4.424;2023-06-05T13:02:18;5.53;;;3.30;;
23470;SDS011;11908;50.806;4.424;2023-06-05T13:04:44;5.25;;;3.33;;
23470;SDS011;11908;50.806;4.424;2023-06-05T13:07:10;13.82;;;4.18;;
23470;SDS011;11908;50.806;4.424;2023-06-05T13:09:36;7.53;;;3.28;;
23470;SDS011;11908;50.806;4.424;2023-06-05T13:12:02;8.35;;;3.40;;
23470;SDS011;11908;50.806;4.424;2023-06-05T13:14:29;6.50;;;3.28;;
23470;SDS011;11908;50.806;4.424;2023-06-05T13:16:58;6.38;;;2.92;;
23470;SDS011;11908;50.806;4.424;2023-06-05T13:19:24;3.50;;;2.22;;
23470;SDS011;11908;50.806;4.424;2023-06-05T13:21:50;10.75;;;2.85;;
23470;SDS011;11908;50.806;4.424;2023-06-05T13:24:16;8.25;;;2.88;;
23470;SDS011;11908;50.806;4.424;2023-06-05T13:26:42;5.97;;;3.55;;
23470;SDS011;11908;50.806;4.424;2023-06-05T13:29:11;8.70;;;3.28;;
23470;SDS011;11908;50.806;4.424;2023-06-05T13:31:38;7.88;;;2.97;;
23470;SDS011;11908;50.806;4.424;2023-06-05T13:34:05;4.72;;;3.03;;
23470;SDS011;11908;50.806;4.424;2023-06-05T13:36:31;11.77;;;3.20;;
23470;SDS011;11908;50.806;4.424;2023-06-05T13:38:56;4.65;;;2.70;;
23470;SDS011;11908;50.806;4.424;2023-06-05T13:41:22;7.75;;;3.67;;
23470;SDS011;11908;50.806;4.424;2023-06-05T13:43:48;9.25;;;3.38;;
23470;SDS011;11908;50.806;4.424;2023-06-05T13:46:13;7.90;;;3.10;;
23470;SDS011;11908;50.806;4.424;2023-06-05T13:48:39;6.45;;;3.30;;
23470;SDS011;11908;50.806;4.424;2023-06-05T13:51:05;13.15;;;3.35;;
23470;SDS011;11908;50.806;4.424;2023-06-05T13:53:31;4.82;;;2.85;;
23470;SDS011;11908;50.806;4.424;2023-06-05T13:56:05;4.78;;;3.15;;
23470;SDS011;11908;50.806;4.424;2023-06-05T13:58:31;7.85;;;3.15;;
23470;SDS011;11908;50.806;4.424;2023-06-05T14:00:57;6.05;;;3.10;;
23470;SDS011;11908;50.806;4.424;2023-06-05T14:03:24;6.82;;;2.78;;
23470;SDS011;11908;50.806;4.424;2023-06-05T14:05:50;3.65;;;2.42;;
23470;SDS011;11908;50.806;4.424;2023-06-05T14:08:16;6.32;;;3.00;;
23470;SDS011;11908;50.806;4.424;2023-06-05T14:10:42;5.60;;;2.60;;
23470;SDS011;11908;50.806;4.424;2023-06-05T14:13:07;6.15;;;2.55;;
23470;SDS011;11908;50.806;4.424;2023-06-05T14:15:33;6.32;;;2.50;;
23470;SDS011;11908;50.806;4.424;2023-06-05T14:18:03;4.53;;;2.78;;
23470;SDS011;11908;50.806;4.424;2023-06-05T14:20:30;12.02;;;3.83;;
23470;SDS011;11908;50.806;4.424;2023-06-05T14:22:56;5.15;;;3.72;;
23470;SDS011;11908;50.806;4.424;2023-06-05T14:25:26;9.23;;;3.67;;
23470;SDS011;11908;50.806;4.424;2023-06-05T14:27:56;8.90;;;4.30;;
23470;SDS011;11908;50.806;4.424;2023-06-05T14:30:23;6.55;;;3.78;;
23470;SDS011;11908;50.806;4.424;2023-06-05T14:32:49;7.22;;;3.10;;
23470;SDS011;11908;50.806;4.424;2023-06-05T14:35:15;8.27;;;3.42;;
23470;SDS011;11908;50.806;4.424;2023-06-05T14:37:41;7.68;;;3.28;;
23470;SDS011;11908;50.806;4.424;2023-06-05T14:40:07;5.43;;;3.20;;
23470;SDS011;11908;50.806;4.424;2023-06-05T14:42:34;9.65;;;3.40;;
23470;SDS011;11908;50.806;4.424;2023-06-05T14:45:00;8.38;;;2.80;;
23470;SDS011;11908;50.806;4.424;2023-06-05T14:47:27;7.40;;;3.83;;
23470;SDS011;11908;50.806;4.424;2023-06-05T14:49:53;7.55;;;2.70;;
23470;SDS011;11908;50.806;4.424;2023-06-05T14:52:18;7.03;;;2.90;;
23470;SDS011;11908;50.806;4.424;2023-06-05T14:54:44;5.55;;;3.20;;
23470;SDS011;11908;50.806;4.424;2023-06-05T14:57:10;13.10;;;3.08;;
23470;SDS011;11908;50.806;4.424;2023-06-05T14:59:36;7.43;;;3.53;;
23470;SDS011;11908;50.806;4.424;2023-06-05T15:02:02;4.65;;;3.05;;
23470;SDS011;11908;50.806;4.424;2023-06-05T15:04:28;6.00;;;3.10;;
23470;SDS011;11908;50.806;4.424;2023-06-05T15:06:54;5.60;;;3.15;;
23470;SDS011;11908;50.806;4.424;2023-06-05T15:09:20;6.50;;;2.72;;
23470;SDS011;11908;50.806;4.424;2023-06-05T15:11:47;9.07;;;3.45;;
23470;SDS011;11908;50.806;4.424;2023-06-05T15:14:13;7.07;;;2.83;;
23470;SDS011;11908;50.806;4.424;2023-06-05T15:16:39;5.80;;;2.85;;
23470;SDS011;11908;50.806;4.424;2023-06-05T15:19:05;7.75;;;2.75;;
23470;SDS011;11908;50.806;4.424;2023-06-05T15:21:30;5.32;;;3.10;;